createdAt,value
2022-11-26T00:00:27.126Z,960.04
2022-11-26T00:01:27.111Z,960.05
2022-11-26T00:02:27.208Z,960.02
2022-11-26T00:03:27.109Z,960.09
2022-11-26T00:04:27.055Z,960.08
2022-11-26T00:05:27.038Z,960.07
2022-11-26T00:06:27.026Z,960.14
2022-11-26T00:07:27.148Z,960.14
2022-11-26T00:08:26.991Z,960.14
2022-11-26T00:09:26.975Z,960.13
2022-11-26T00:10:26.958Z,960.12
2022-11-26T00:11:26.944Z,960.14
2022-11-26T00:12:26.925Z,960.13
2022-11-26T00:13:26.910Z,960.17
2022-11-26T00:14:26.892Z,960.2
2022-11-26T00:15:26.877Z,960.16
2022-11-26T00:16:26.937Z,960.13
2022-11-26T00:17:26.843Z,960.13
2022-11-26T00:18:26.979Z,960.08
2022-11-26T00:19:26.811Z,960.12
2022-11-26T00:20:27.022Z,960.14
2022-11-26T00:21:27.008Z,960.16
2022-11-26T00:22:26.990Z,960.14
2022-11-26T00:23:26.996Z,960.18
2022-11-26T00:24:26.957Z,960.21
2022-11-26T00:25:26.939Z,960.18
2022-11-26T00:26:26.923Z,960.15
2022-11-26T00:27:26.907Z,960.15
2022-11-26T00:28:26.891Z,960.1
2022-11-26T00:29:26.877Z,960.12
2022-11-26T00:30:26.861Z,960.12
2022-11-26T00:31:26.867Z,960.18
2022-11-26T00:32:26.825Z,960.18
2022-11-26T00:33:26.812Z,960.2
2022-11-26T00:34:26.794Z,960.22
2022-11-26T00:35:26.779Z,960.23
2022-11-26T00:36:26.760Z,960.25
2022-11-26T00:37:26.746Z,960.27
2022-11-26T00:38:26.730Z,960.24
2022-11-26T00:39:26.740Z,960.28
2022-11-26T00:40:26.696Z,960.3
2022-11-26T00:41:26.681Z,960.34
2022-11-26T00:42:26.664Z,960.36
2022-11-26T00:43:26.650Z,960.36
2022-11-26T00:44:26.639Z,960.34
2022-11-26T00:45:26.643Z,960.41
2022-11-26T00:46:26.672Z,960.39
2022-11-26T00:47:26.584Z,960.47
2022-11-26T00:48:26.568Z,960.43
2022-11-26T00:49:26.551Z,960.39
2022-11-26T00:50:26.536Z,960.46
2022-11-26T00:51:26.520Z,960.44
2022-11-26T00:52:26.504Z,960.43
2022-11-26T00:53:26.488Z,960.48
2022-11-26T00:54:26.472Z,960.53
2022-11-26T00:55:26.479Z,960.54
2022-11-26T00:56:26.438Z,960.53
2022-11-26T00:57:26.422Z,960.58
2022-11-26T00:58:26.408Z,960.59
2022-11-26T00:59:26.388Z,960.59
2022-11-26T01:00:26.378Z,960.64
2022-11-26T01:01:26.424Z,960.64
2022-11-26T01:02:26.419Z,960.67
2022-11-26T01:03:26.358Z,960.64
2022-11-26T01:04:26.310Z,960.63
2022-11-26T01:05:26.288Z,960.69
2022-11-26T01:06:26.277Z,960.67
2022-11-26T01:07:26.277Z,960.71
2022-11-26T01:08:26.243Z,960.69
2022-11-26T01:09:26.225Z,960.69
2022-11-26T01:10:26.216Z,960.73
2022-11-26T01:11:26.221Z,960.74
2022-11-26T01:12:26.179Z,960.7
2022-11-26T01:13:26.159Z,960.74
2022-11-26T01:14:26.145Z,960.74
2022-11-26T01:15:26.129Z,960.72
2022-11-26T01:16:26.161Z,960.78
2022-11-26T01:17:26.098Z,960.75
2022-11-26T01:18:26.078Z,960.76
2022-11-26T01:19:26.065Z,960.77
2022-11-26T01:20:26.045Z,960.78
2022-11-26T01:21:26.031Z,960.8
2022-11-26T01:22:26.015Z,960.81
2022-11-26T01:23:26.003Z,960.81
2022-11-26T01:24:25.981Z,960.85
2022-11-26T01:25:25.965Z,960.84
2022-11-26T01:26:25.949Z,960.81
2022-11-26T01:27:26.048Z,960.84
2022-11-26T01:28:25.917Z,960.82
2022-11-26T01:29:25.902Z,960.87
2022-11-26T01:30:25.883Z,960.84
2022-11-26T01:31:25.895Z,960.88
2022-11-26T01:32:29.388Z,960.87
2022-11-26T01:33:25.835Z,960.89
2022-11-26T01:34:25.817Z,960.93
2022-11-26T01:35:25.804Z,960.87
2022-11-26T01:36:25.784Z,960.92
2022-11-26T01:37:25.774Z,960.92
2022-11-26T01:38:25.752Z,960.87
2022-11-26T01:39:25.737Z,960.91
2022-11-26T01:40:25.722Z,960.96
2022-11-26T01:41:25.710Z,960.94
2022-11-26T01:42:25.686Z,960.93
2022-11-26T01:43:25.700Z,960.98
2022-11-26T01:44:25.655Z,960.96
2022-11-26T01:45:25.700Z,960.97
2022-11-26T01:46:25.622Z,960.97
2022-11-26T01:47:25.618Z,960.95
2022-11-26T01:48:25.593Z,960.95
2022-11-26T01:49:25.573Z,960.96
2022-11-26T01:50:25.556Z,960.95
2022-11-26T01:51:25.542Z,960.95
2022-11-26T01:52:25.525Z,960.97
2022-11-26T01:53:25.509Z,960.99
2022-11-26T01:54:25.493Z,960.99
2022-11-26T01:55:25.476Z,960.99
2022-11-26T01:56:25.462Z,960.99
2022-11-26T01:57:25.443Z,960.98
2022-11-26T01:58:25.426Z,960.98
2022-11-26T01:59:25.439Z,960.98
2022-11-26T02:00:25.395Z,961.01
2022-11-26T02:01:25.487Z,961.03
2022-11-26T02:02:25.434Z,961.05
2022-11-26T02:03:25.346Z,961.03
2022-11-26T02:04:25.328Z,961.06
2022-11-26T02:05:25.316Z,961.01
2022-11-26T02:06:25.297Z,961.05
2022-11-26T02:07:25.323Z,961.06
2022-11-26T02:08:25.268Z,961.03
2022-11-26T02:09:25.247Z,961.04
2022-11-26T02:10:25.233Z,961.1
2022-11-26T02:11:25.215Z,961.1
2022-11-26T02:12:25.206Z,961.09
2022-11-26T02:13:25.184Z,961.04
2022-11-26T02:14:25.176Z,961.07
2022-11-26T02:15:25.199Z,961.03
2022-11-26T02:16:25.184Z,961.09
2022-11-26T02:17:25.119Z,961.13
2022-11-26T02:18:25.103Z,961.12
2022-11-26T02:19:25.085Z,961.09
2022-11-26T02:20:25.072Z,961.11
2022-11-26T02:21:25.054Z,961.13
2022-11-26T02:22:25.038Z,961.13
2022-11-26T02:23:25.023Z,961.14
2022-11-26T02:24:25.008Z,961.12
2022-11-26T02:25:24.991Z,961.12
2022-11-26T02:26:24.978Z,961.17
2022-11-26T02:27:24.956Z,961.2
2022-11-26T02:28:24.941Z,961.22
2022-11-26T02:29:24.922Z,961.24
2022-11-26T02:30:24.911Z,961.27
2022-11-26T02:31:24.947Z,961.24
2022-11-26T02:32:24.876Z,961.23
2022-11-26T02:33:24.856Z,961.29
2022-11-26T02:34:24.843Z,961.3
2022-11-26T02:35:24.824Z,961.3
2022-11-26T02:36:24.813Z,961.33
2022-11-26T02:37:24.794Z,961.34
2022-11-26T02:38:24.778Z,961.36
2022-11-26T02:39:24.759Z,961.39
2022-11-26T02:40:24.746Z,961.38
2022-11-26T02:41:24.730Z,961.37
2022-11-26T02:42:24.752Z,961.43
2022-11-26T02:43:24.696Z,961.42
2022-11-26T02:44:24.689Z,961.41
2022-11-26T02:45:24.741Z,961.45
2022-11-26T02:46:24.706Z,961.42
2022-11-26T02:47:24.656Z,961.4
2022-11-26T02:48:24.624Z,961.41
2022-11-26T02:49:24.598Z,961.44
2022-11-26T02:50:24.583Z,961.45
2022-11-26T02:51:24.563Z,961.45
2022-11-26T02:52:24.547Z,961.47
2022-11-26T02:53:24.530Z,961.43
2022-11-26T02:54:24.518Z,961.47
2022-11-26T02:55:24.497Z,961.46
2022-11-26T02:56:24.482Z,961.47
2022-11-26T02:57:24.464Z,961.47
2022-11-26T02:58:24.451Z,961.51
2022-11-26T02:59:24.432Z,961.51
2022-11-26T03:00:24.416Z,961.5
2022-11-26T03:01:24.489Z,961.5
2022-11-26T03:02:24.384Z,961.48
2022-11-26T03:03:24.391Z,961.56
2022-11-26T03:04:24.439Z,961.53
2022-11-26T03:05:24.334Z,961.53
2022-11-26T03:06:24.315Z,961.53
2022-11-26T03:07:24.315Z,961.54
2022-11-26T03:08:24.284Z,961.58
2022-11-26T03:09:24.268Z,961.53
2022-11-26T03:10:24.250Z,961.53
2022-11-26T03:11:24.270Z,961.52
2022-11-26T03:12:24.217Z,961.55
2022-11-26T03:13:24.202Z,961.51
2022-11-26T03:14:24.183Z,961.5
2022-11-26T03:15:24.170Z,961.57
2022-11-26T03:16:24.220Z,961.6
2022-11-26T03:17:24.135Z,961.59
2022-11-26T03:18:24.118Z,961.61
2022-11-26T03:19:24.128Z,961.69
2022-11-26T03:20:24.089Z,961.65
2022-11-26T03:21:24.069Z,961.66
2022-11-26T03:22:24.054Z,961.68
2022-11-26T03:23:24.037Z,961.64
2022-11-26T03:24:24.019Z,961.67
2022-11-26T03:25:24.004Z,961.65
2022-11-26T03:26:23.989Z,961.73
2022-11-26T03:27:23.971Z,961.72
2022-11-26T03:28:23.953Z,961.7
2022-11-26T03:29:23.938Z,961.69
2022-11-26T03:30:23.921Z,961.7
2022-11-26T03:31:23.936Z,961.68
2022-11-26T03:32:23.889Z,961.72
2022-11-26T03:49:56.132Z,961.89
2022-11-26T03:50:56.097Z,961.92
2022-11-26T03:51:56.064Z,961.91
2022-11-26T03:52:56.045Z,961.89
2022-11-26T03:53:56.026Z,961.91
2022-11-26T03:54:56.012Z,961.9
2022-11-26T03:55:55.991Z,961.96
2022-11-26T03:56:55.973Z,961.94
2022-11-26T03:57:55.954Z,961.98
2022-11-26T03:58:55.937Z,961.95
2022-11-26T03:59:55.920Z,962.01
2022-11-26T04:00:55.936Z,961.95
2022-11-26T04:01:55.937Z,961.95
2022-11-26T04:02:55.924Z,961.99
2022-11-26T04:03:55.848Z,962.01
2022-11-26T04:04:55.832Z,962
2022-11-26T04:05:55.838Z,962.03
2022-11-26T04:06:55.799Z,962.04
2022-11-26T04:07:55.844Z,962.07
2022-11-26T04:08:55.765Z,962.06
2022-11-26T04:09:55.746Z,962.08
2022-11-26T04:10:55.729Z,962.09
2022-11-26T04:11:55.712Z,962.17
2022-11-26T04:12:55.700Z,962.15
2022-11-26T04:13:55.678Z,962.13
2022-11-26T04:14:55.664Z,962.14
2022-11-26T04:15:55.647Z,962.15
2022-11-26T04:16:55.695Z,962.17
2022-11-26T04:17:55.611Z,962.19
2022-11-26T04:18:55.598Z,962.22
2022-11-26T04:19:55.588Z,962.17
2022-11-26T04:20:55.563Z,962.2
2022-11-26T04:21:55.576Z,962.24
2022-11-26T04:22:55.530Z,962.26
2022-11-26T04:23:55.517Z,962.28
2022-11-26T04:24:55.496Z,962.28
2022-11-26T04:25:55.478Z,962.31
2022-11-26T04:26:55.464Z,962.3
2022-11-26T04:27:55.449Z,962.33
2022-11-26T04:28:55.432Z,962.3
2022-11-26T04:29:55.414Z,962.3
2022-11-26T04:30:55.400Z,962.35
2022-11-26T04:31:55.405Z,962.35
2022-11-26T04:32:55.364Z,962.4
2022-11-26T04:33:55.348Z,962.4
2022-11-26T04:34:55.333Z,962.45
2022-11-26T04:35:55.315Z,962.46
2022-11-26T04:36:55.300Z,962.44
2022-11-26T04:37:55.305Z,962.46
2022-11-26T04:38:55.267Z,962.47
2022-11-26T04:39:55.250Z,962.48
2022-11-26T04:40:55.233Z,962.49
2022-11-26T04:41:55.220Z,962.53
2022-11-26T04:42:55.200Z,962.48
2022-11-26T04:43:55.184Z,962.57
2022-11-26T04:44:55.174Z,962.59
2022-11-26T04:45:55.222Z,962.55
2022-11-26T04:46:55.136Z,962.64
2022-11-26T04:47:55.120Z,962.64
2022-11-26T04:48:55.103Z,962.63
2022-11-26T04:49:55.092Z,962.62
2022-11-26T04:50:55.071Z,962.67
2022-11-26T04:51:55.056Z,962.66
2022-11-26T04:52:55.037Z,962.67
2022-11-26T04:53:55.825Z,962.68
2022-11-26T04:54:55.006Z,962.68
2022-11-26T04:55:54.992Z,962.74
2022-11-26T04:56:54.974Z,962.73
2022-11-26T04:57:54.959Z,962.76
2022-11-26T04:58:54.940Z,962.75
2022-11-26T04:59:54.927Z,962.74
2022-11-26T05:00:54.956Z,962.8
2022-11-26T05:01:54.894Z,962.8
2022-11-26T05:02:54.957Z,962.84
2022-11-26T05:03:54.861Z,962.88
2022-11-26T05:04:54.845Z,962.87
2022-11-26T05:05:54.828Z,962.9
2022-11-26T05:06:54.810Z,962.84
2022-11-26T05:07:54.900Z,962.88
2022-11-26T05:08:54.793Z,962.84
2022-11-26T05:09:54.786Z,962.85
2022-11-26T05:10:54.744Z,962.85
2022-11-26T05:11:54.732Z,962.88
2022-11-26T05:12:54.712Z,962.85
2022-11-26T05:13:54.699Z,962.87
2022-11-26T05:14:54.680Z,962.86
2022-11-26T05:15:54.666Z,962.86
2022-11-26T05:16:54.704Z,962.9
2022-11-26T05:17:54.634Z,962.88
2022-11-26T05:18:54.614Z,962.9
2022-11-26T05:19:54.601Z,962.89
2022-11-26T05:20:54.586Z,962.85
2022-11-26T05:21:54.569Z,962.87
2022-11-26T05:22:54.549Z,962.93
2022-11-26T05:23:54.537Z,962.89
2022-11-26T05:24:54.516Z,962.92
2022-11-26T05:25:54.531Z,962.95
2022-11-26T05:26:57.045Z,962.94
2022-11-26T05:27:54.469Z,962.94
2022-11-26T05:28:54.453Z,962.99
2022-11-26T05:29:54.436Z,962.98
2022-11-26T05:30:54.420Z,962.97
2022-11-26T05:31:54.524Z,963
2022-11-26T05:32:54.391Z,963.05
2022-11-26T05:33:54.374Z,963.01
2022-11-26T05:34:58.592Z,963.05
2022-11-26T05:35:54.340Z,963.07
2022-11-26T05:36:54.324Z,963.06
2022-11-26T05:37:54.309Z,963.05
2022-11-26T05:38:54.293Z,963.1
2022-11-26T05:39:54.275Z,963.1
2022-11-26T05:40:54.261Z,963.13
2022-11-26T05:41:54.272Z,963.1
2022-11-26T05:42:54.229Z,963.13
2022-11-26T05:43:54.209Z,963.13
2022-11-26T05:44:54.195Z,963.11
2022-11-26T05:45:54.228Z,963.17
2022-11-26T05:46:54.163Z,963.16
2022-11-26T05:47:54.144Z,963.17
2022-11-26T05:48:54.131Z,963.15
2022-11-26T05:49:54.111Z,963.2
2022-11-26T05:50:54.593Z,963.17
2022-11-26T05:51:54.081Z,963.19
2022-11-26T05:52:54.064Z,963.2
2022-11-26T05:53:54.047Z,963.26
2022-11-26T05:54:54.032Z,963.26
2022-11-26T05:55:54.018Z,963.26
2022-11-26T05:56:58.572Z,963.31
2022-11-26T05:57:54.011Z,963.28
2022-11-26T05:58:53.966Z,963.35
2022-11-26T05:59:53.953Z,963.31
2022-11-26T06:00:53.934Z,963.32
2022-11-26T06:01:53.953Z,963.35
2022-11-26T06:02:54.027Z,963.38
2022-11-26T06:03:53.989Z,963.41
2022-11-26T06:04:53.870Z,963.34
2022-11-26T06:05:53.854Z,963.39
2022-11-26T06:06:53.841Z,963.37
2022-11-26T06:07:53.843Z,963.37
2022-11-26T06:08:53.815Z,963.37
2022-11-26T06:09:53.788Z,963.34
2022-11-26T06:10:53.776Z,963.38
2022-11-26T06:11:53.761Z,963.42
2022-11-26T06:12:53.741Z,963.4
2022-11-26T06:13:53.746Z,963.4
2022-11-26T06:14:53.711Z,963.43
2022-11-26T06:15:53.692Z,963.41
2022-11-26T06:16:53.720Z,963.38
2022-11-26T06:17:53.660Z,963.39
2022-11-26T06:18:53.645Z,963.37
2022-11-26T06:19:53.632Z,963.42
2022-11-26T06:20:53.612Z,963.46
2022-11-26T06:21:53.597Z,963.45
2022-11-26T06:22:53.579Z,963.46
2022-11-26T06:23:59.017Z,963.49
2022-11-26T06:24:53.545Z,963.53
2022-11-26T06:25:53.530Z,963.58
2022-11-26T06:26:53.513Z,963.59
2022-11-26T06:27:53.501Z,963.58
2022-11-26T06:28:53.481Z,963.63
2022-11-26T06:29:53.492Z,963.63
2022-11-26T06:30:53.451Z,963.63
2022-11-26T06:31:53.496Z,963.61
2022-11-26T06:32:53.417Z,963.64
2022-11-26T06:33:53.408Z,963.69
2022-11-26T06:34:54.214Z,963.69
2022-11-26T06:35:53.372Z,963.67
2022-11-26T06:36:53.356Z,963.68
2022-11-26T06:37:53.342Z,963.72
2022-11-26T06:38:53.321Z,963.68
2022-11-26T06:39:53.307Z,963.71
2022-11-26T06:40:53.289Z,963.73
2022-11-26T06:41:53.273Z,963.72
2022-11-26T06:42:53.257Z,963.77
2022-11-26T06:43:53.242Z,963.77
2022-11-26T06:44:57.073Z,963.83
2022-11-26T06:45:53.252Z,963.84
2022-11-26T06:46:53.191Z,963.83
2022-11-26T06:47:53.181Z,963.85
2022-11-26T06:48:53.161Z,963.86
2022-11-26T06:49:53.144Z,963.84
2022-11-26T06:50:53.131Z,963.86
2022-11-26T06:51:53.116Z,963.93
2022-11-26T06:52:53.097Z,963.96
2022-11-26T06:53:53.085Z,963.95
2022-11-26T06:54:53.064Z,963.94
2022-11-26T06:55:53.050Z,963.98
2022-11-26T06:56:53.033Z,963.94
2022-11-26T06:57:53.019Z,963.98
2022-11-26T06:58:53.002Z,964
2022-11-26T06:59:52.986Z,964.02
2022-11-26T07:00:52.969Z,964.04
2022-11-26T07:01:53.042Z,964.07
2022-11-26T07:02:53.013Z,964.14
2022-11-26T07:03:52.921Z,964.13
2022-11-26T07:04:52.905Z,964.15
2022-11-26T07:05:52.889Z,964.09
2022-11-26T07:06:52.875Z,964.15
2022-11-26T07:07:52.933Z,964.13
2022-11-26T07:08:52.841Z,964.14
2022-11-26T07:09:52.824Z,964.19
2022-11-26T07:10:52.808Z,964.18
2022-11-26T07:11:52.802Z,964.19
2022-11-26T07:12:52.775Z,964.22
2022-11-26T07:13:52.764Z,964.26
2022-11-26T07:14:52.747Z,964.23
2022-11-26T07:15:52.785Z,964.29
2022-11-26T07:16:52.713Z,964.26
2022-11-26T07:17:52.717Z,964.27
2022-11-26T07:18:55.297Z,964.29
2022-11-26T07:19:52.662Z,964.25
2022-11-26T07:20:52.648Z,964.26
2022-11-26T07:21:52.629Z,964.29
2022-11-26T07:22:52.615Z,964.28
2022-11-26T07:23:52.601Z,964.33
2022-11-26T07:24:52.584Z,964.31
2022-11-26T07:25:52.567Z,964.3
2022-11-26T07:26:52.554Z,964.28
2022-11-26T07:27:52.535Z,964.29
2022-11-26T07:28:52.517Z,964.33
2022-11-26T07:29:52.500Z,964.33
2022-11-26T07:30:52.486Z,964.32
2022-11-26T07:31:52.515Z,964.35
2022-11-26T07:32:52.454Z,964.35
2022-11-26T07:33:52.463Z,964.38
2022-11-26T07:34:52.423Z,964.37
2022-11-26T07:35:52.405Z,964.38
2022-11-26T07:36:56.719Z,964.37
2022-11-26T07:37:52.372Z,964.37
2022-11-26T07:38:52.363Z,964.34
2022-11-26T07:39:52.341Z,964.39
2022-11-26T07:40:52.326Z,964.42
2022-11-26T07:41:52.310Z,964.42
2022-11-26T07:42:53.387Z,964.48
2022-11-26T07:43:52.277Z,964.44
2022-11-26T07:44:52.263Z,964.42
2022-11-26T07:45:52.301Z,964.43
2022-11-26T07:46:52.236Z,964.42
2022-11-26T07:47:52.215Z,964.45
2022-11-26T07:48:52.200Z,964.49
2022-11-26T07:49:52.208Z,964.48
2022-11-26T07:50:52.169Z,964.53
2022-11-26T07:51:52.151Z,964.53
2022-11-26T07:52:52.136Z,964.56
2022-11-26T07:53:52.119Z,964.59
2022-11-26T07:54:52.105Z,964.6
2022-11-26T07:55:52.089Z,964.63
2022-11-26T07:56:52.073Z,964.62
2022-11-26T07:57:52.056Z,964.6
2022-11-26T07:58:52.047Z,964.63
2022-11-26T07:59:52.023Z,964.65
2022-11-26T08:00:54.743Z,964.63
2022-11-26T08:01:52.086Z,964.64
2022-11-26T08:02:52.147Z,964.65
2022-11-26T08:03:51.960Z,964.68
2022-11-26T08:04:51.947Z,964.62
2022-11-26T08:05:51.967Z,964.64
2022-11-26T08:06:51.913Z,964.7
2022-11-26T08:07:51.918Z,964.65
2022-11-26T08:08:51.886Z,964.66
2022-11-26T08:09:51.865Z,964.65
2022-11-26T08:10:51.853Z,964.67
2022-11-26T08:11:51.837Z,964.64
2022-11-26T08:12:51.967Z,964.68
2022-11-26T08:13:51.804Z,964.69
2022-11-26T08:14:51.786Z,964.66
2022-11-26T08:15:51.891Z,964.7
2022-11-26T08:16:51.840Z,964.68
2022-11-26T08:17:51.900Z,964.66
2022-11-26T08:18:51.740Z,964.7
2022-11-26T08:19:51.709Z,964.65
2022-11-26T08:20:51.695Z,964.68
2022-11-26T08:21:51.702Z,964.74
2022-11-26T08:22:51.814Z,964.71
2022-11-26T08:23:51.647Z,964.74
2022-11-26T08:24:51.632Z,964.75
2022-11-26T08:26:14.509Z,964.75
2022-11-26T08:26:51.593Z,964.76
2022-11-26T08:27:51.681Z,964.78
2022-11-26T08:28:51.566Z,964.77
2022-11-26T08:29:51.549Z,964.75
2022-11-26T08:30:51.531Z,964.74
2022-11-26T08:31:51.568Z,964.75
2022-11-26T08:32:51.499Z,964.72
2022-11-26T08:33:51.485Z,964.75
2022-11-26T08:34:51.469Z,964.72
2022-11-26T08:36:05.864Z,964.74
2022-11-26T08:36:51.449Z,964.73
2022-11-26T08:37:51.445Z,964.69
2022-11-26T08:38:51.405Z,964.69
2022-11-26T08:39:51.392Z,964.7
2022-11-26T08:40:51.373Z,964.68
2022-11-26T08:41:52.608Z,964.68
2022-11-26T08:42:51.439Z,964.7
2022-11-26T08:44:06.883Z,964.69
2022-11-26T08:44:51.307Z,964.79
2022-11-26T08:45:51.336Z,964.82
2022-11-26T08:46:51.275Z,964.83
2022-11-26T08:47:51.262Z,964.84
2022-11-26T08:48:51.246Z,964.85
2022-11-26T08:49:51.227Z,964.82
2022-11-26T08:50:51.210Z,964.87
2022-11-26T08:51:51.195Z,964.79
2022-11-26T08:52:51.180Z,964.83
2022-11-26T08:53:51.186Z,964.83
2022-11-26T08:54:51.144Z,964.81
2022-11-26T08:55:59.937Z,964.87
2022-11-26T08:56:51.112Z,964.89
2022-11-26T08:57:51.198Z,964.87
2022-11-26T08:58:51.082Z,964.88
2022-11-26T08:59:51.061Z,964.94
2022-11-26T09:00:51.048Z,964.92
2022-11-26T09:01:51.073Z,964.93
2022-11-26T09:02:51.160Z,964.94
2022-11-26T09:03:50.995Z,964.97
2022-11-26T09:04:50.985Z,964.95
2022-11-26T09:05:50.965Z,965
2022-11-26T09:06:50.948Z,965.01
2022-11-26T09:07:51.111Z,965.01
2022-11-26T09:08:50.921Z,965.01
2022-11-26T09:09:50.930Z,965.07
2022-11-26T09:10:50.887Z,965.02
2022-11-26T09:11:50.867Z,965
2022-11-26T09:12:50.955Z,965.08
2022-11-26T09:13:50.834Z,965.09
2022-11-26T09:14:50.859Z,965.11
2022-11-26T09:15:50.810Z,965.1
2022-11-26T09:16:50.864Z,965.08
2022-11-26T09:17:50.771Z,965.1
2022-11-26T09:18:50.755Z,965.03
2022-11-26T09:19:50.756Z,965.11
2022-11-26T09:20:54.209Z,965.12
2022-11-26T09:21:50.704Z,965.08
2022-11-26T09:22:50.838Z,965.04
2022-11-26T09:23:50.670Z,965.06
2022-11-26T09:24:50.657Z,965.03
2022-11-26T09:25:50.663Z,965.06
2022-11-26T09:26:50.623Z,965.09
2022-11-26T09:27:50.607Z,965.04
2022-11-26T09:28:50.591Z,965.04
2022-11-26T09:29:50.573Z,965.05
2022-11-26T09:30:50.559Z,965
2022-11-26T09:32:15.823Z,964.99
2022-11-26T09:32:50.563Z,965.02
2022-11-26T09:33:50.509Z,965.04
2022-11-26T09:34:50.494Z,965.06
2022-11-26T09:35:50.476Z,965.11
2022-11-26T09:36:50.463Z,965.1
2022-11-26T09:37:51.801Z,965.15
2022-11-26T09:38:50.428Z,965.09
2022-11-26T09:39:50.410Z,965.1
2022-11-26T09:40:50.399Z,965.14
2022-11-26T09:41:50.404Z,965.12
2022-11-26T09:42:50.514Z,965.13
2022-11-26T09:43:53.143Z,965.12
2022-11-26T09:44:50.331Z,965.12
2022-11-26T09:45:50.348Z,965.15
2022-11-26T09:47:10.798Z,965.17
2022-11-26T09:47:50.280Z,965.2
2022-11-26T09:48:50.265Z,965.17
2022-11-26T09:49:50.255Z,965.22
2022-11-26T09:50:50.232Z,965.21
2022-11-26T09:51:50.218Z,965.21
2022-11-26T09:52:50.200Z,965.23
2022-11-26T09:53:50.188Z,965.17
2022-11-26T09:54:50.170Z,965.23
2022-11-26T09:55:50.154Z,965.22
2022-11-26T09:56:50.137Z,965.2
2022-11-26T09:57:50.148Z,965.2
2022-11-26T09:58:50.107Z,965.22
2022-11-26T09:59:50.089Z,965.2
2022-11-26T10:00:50.123Z,965.22
2022-11-26T10:01:50.087Z,965.24
2022-11-26T10:02:50.191Z,965.22
2022-11-26T10:03:50.027Z,965.21
2022-11-26T10:04:50.009Z,965.2
2022-11-26T10:05:49.994Z,965.2
2022-11-26T10:06:49.976Z,965.17
2022-11-26T10:07:50.012Z,965.26
2022-11-26T10:08:49.944Z,965.25
2022-11-26T10:09:49.932Z,965.24
2022-11-26T10:10:49.912Z,965.26
2022-11-26T10:11:49.900Z,965.26
2022-11-26T10:13:11.116Z,965.26
2022-11-26T10:13:49.891Z,965.25
2022-11-26T10:14:49.849Z,965.25
2022-11-26T10:15:49.835Z,965.27
2022-11-26T10:16:49.859Z,965.29
2022-11-26T10:17:49.807Z,965.29
2022-11-26T10:18:49.785Z,965.3
2022-11-26T10:19:49.772Z,965.25
2022-11-26T10:20:49.753Z,965.26
2022-11-26T10:22:05.048Z,965.27
2022-11-26T10:22:54.092Z,965.24
2022-11-26T10:23:49.810Z,965.21
2022-11-26T10:24:49.693Z,965.19
2022-11-26T10:25:49.678Z,965.21
2022-11-26T10:26:49.664Z,965.17
2022-11-26T10:27:49.646Z,965.2
2022-11-26T10:28:49.631Z,965.18
2022-11-26T10:29:49.640Z,965.18
2022-11-26T10:30:49.598Z,965.14
2022-11-26T10:31:49.620Z,965.17
2022-11-26T10:32:49.566Z,965.19
2022-11-26T10:33:49.653Z,965.2
2022-11-26T10:34:49.536Z,965.19
2022-11-26T10:35:49.527Z,965.2
2022-11-26T10:36:49.504Z,965.2
2022-11-26T10:37:49.497Z,965.18
2022-11-26T10:38:49.474Z,965.18
2022-11-26T10:39:51.825Z,965.17
2022-11-26T10:40:49.449Z,965.17
2022-11-26T10:41:49.428Z,965.2
2022-11-26T10:42:49.416Z,965.18
2022-11-26T10:43:49.408Z,965.17
2022-11-26T10:44:49.387Z,965.15
2022-11-26T10:45:49.396Z,965.18
2022-11-26T10:46:49.400Z,965.19
2022-11-26T10:47:49.346Z,965.18
2022-11-26T10:48:49.477Z,965.18
2022-11-26T10:49:49.310Z,965.22
2022-11-26T10:50:49.351Z,965.2
2022-11-26T10:51:49.279Z,965.2
2022-11-26T10:52:49.265Z,965.18
2022-11-26T10:53:49.401Z,965.19
2022-11-26T10:54:49.236Z,965.24
2022-11-26T10:55:49.222Z,965.23
2022-11-26T10:56:49.207Z,965.2
2022-11-26T10:57:49.194Z,965.24
2022-11-26T10:58:49.331Z,965.25
2022-11-26T10:59:49.163Z,965.22
2022-11-26T11:00:49.255Z,965.24
2022-11-26T11:01:51.564Z,965.21
2022-11-26T11:02:49.126Z,965.25
2022-11-26T11:04:49.095Z,965.22
2022-11-26T11:05:49.077Z,965.21
2022-11-26T11:06:49.066Z,965.25
2022-11-26T11:07:49.135Z,965.24
2022-11-26T11:08:50.013Z,965.27
2022-11-26T11:09:49.897Z,965.29
2022-11-26T11:10:49.882Z,965.27
2022-11-26T11:11:49.867Z,965.25
2022-11-26T11:12:49.856Z,965.29
2022-11-26T11:13:49.841Z,965.31
2022-11-26T11:14:50.272Z,965.25
2022-11-26T11:15:49.811Z,965.27
2022-11-26T11:16:49.830Z,965.27
2022-11-26T11:17:49.809Z,965.28
2022-11-26T11:18:49.769Z,965.29
2022-11-26T11:19:49.752Z,965.32
2022-11-26T11:20:49.742Z,965.31
2022-11-26T11:21:49.726Z,965.36
2022-11-26T11:22:51.104Z,965.35
2022-11-26T11:24:07.998Z,965.32
2022-11-26T11:24:49.682Z,965.34
2022-11-26T11:25:49.666Z,965.37
2022-11-26T11:26:49.656Z,965.37
2022-11-26T11:27:49.636Z,965.37
2022-11-26T11:28:49.628Z,965.38
2022-11-26T11:29:49.609Z,965.38
2022-11-26T11:30:49.597Z,965.38
2022-11-26T11:31:49.632Z,965.38
2022-11-26T11:32:49.566Z,965.34
2022-11-26T11:33:49.577Z,965.32
2022-11-26T11:34:49.538Z,965.32
2022-11-26T11:35:49.524Z,965.32
2022-11-26T11:36:49.506Z,965.3
2022-11-26T11:37:49.494Z,965.34
2022-11-26T11:38:49.628Z,965.33
2022-11-26T11:39:49.468Z,965.37
2022-11-26T11:40:49.451Z,965.37
2022-11-26T11:41:49.440Z,965.39
2022-11-26T11:42:49.432Z,965.38
2022-11-26T11:43:49.508Z,965.37
2022-11-26T11:44:49.391Z,965.35
2022-11-26T11:45:53.042Z,965.37
2022-11-26T11:46:49.361Z,965.43
2022-11-26T11:47:49.351Z,965.42
2022-11-26T11:48:49.432Z,965.41
2022-11-26T11:49:49.345Z,965.39
2022-11-26T11:50:49.305Z,965.42
2022-11-26T11:51:49.302Z,965.4
2022-11-26T11:52:49.273Z,965.4
2022-11-26T11:53:49.360Z,965.39
2022-11-26T11:54:49.247Z,965.38
2022-11-26T11:55:49.233Z,965.39
2022-11-26T11:56:49.213Z,965.4
2022-11-26T11:57:49.202Z,965.41
2022-11-26T11:58:49.187Z,965.4
2022-11-26T11:59:49.171Z,965.36
2022-11-26T12:00:49.156Z,965.35
2022-11-26T12:01:49.194Z,965.34
2022-11-26T12:02:49.126Z,965.32
2022-11-26T12:03:49.264Z,965.3
2022-11-26T12:04:49.148Z,965.29
2022-11-26T12:05:49.110Z,965.32
2022-11-26T12:06:49.067Z,965.3
2022-11-26T12:07:49.751Z,965.33
2022-11-26T12:08:49.769Z,965.35
2022-11-26T12:09:49.658Z,965.32
2022-11-26T12:10:49.639Z,965.37
2022-11-26T12:11:49.631Z,965.38
2022-11-26T12:12:49.608Z,965.37
2022-11-26T12:13:49.751Z,965.32
2022-11-26T12:14:49.578Z,965.38
2022-11-26T12:15:49.565Z,965.42
2022-11-26T12:16:49.632Z,965.42
2022-11-26T12:17:49.536Z,965.4
2022-11-26T12:18:49.672Z,965.44
2022-11-26T12:19:49.505Z,965.43
2022-11-26T12:20:49.496Z,965.44
2022-11-26T12:21:49.501Z,965.45
2022-11-26T12:22:49.461Z,965.46
2022-11-26T12:23:49.447Z,965.43
2022-11-26T12:24:49.430Z,965.45
2022-11-26T12:25:49.415Z,965.4
2022-11-26T12:26:49.401Z,965.42
2022-11-26T12:27:49.386Z,965.39
2022-11-26T12:28:51.414Z,965.44
2022-11-26T12:29:49.354Z,965.45
2022-11-26T12:30:49.340Z,965.42
2022-11-26T12:31:49.375Z,965.41
2022-11-26T12:32:49.310Z,965.44
2022-11-26T12:33:49.394Z,965.41
2022-11-26T12:34:49.280Z,965.4
2022-11-26T12:35:49.264Z,965.44
2022-11-26T12:36:49.251Z,965.43
2022-11-26T12:37:49.259Z,965.48
2022-11-26T12:38:49.368Z,965.47
2022-11-26T12:39:53.550Z,965.46
2022-11-26T12:40:49.189Z,965.46
2022-11-26T12:41:49.173Z,965.43
2022-11-26T12:42:49.158Z,965.46
2022-11-26T12:43:49.142Z,965.47
2022-11-26T12:44:49.130Z,965.47
2022-11-26T12:45:49.154Z,965.46
2022-11-26T12:46:49.098Z,965.49
2022-11-26T12:47:49.084Z,965.47
2022-11-26T12:48:49.217Z,965.53